sensor_id;sensor_type;location;lat;lon;timestamp;P1;durP1;ratioP1;P2;durP2;ratioP2
66702;SDS011;60933;46.398;-63.798;2023-05-07T00:00:54;3.63;;;1.23;;
66702;SDS011;60933;46.398;-63.798;2023-05-07T00:03:20;3.25;;;1.00;;
66702;SDS011;60933;46.398;-63.798;2023-05-07T00:05:46;3.70;;;1.08;;
66702;SDS011;60933;46.398;-63.798;2023-05-07T00:08:13;5.78;;;1.05;;
66702;SDS011;60933;46.398;-63.798;2023-05-07T00:10:39;3.78;;;0.95;;
66702;SDS011;60933;46.398;-63.798;2023-05-07T00:13:06;4.03;;;1.17;;
66702;SDS011;60933;46.398;-63.798;2023-05-07T00:15:32;7.18;;;1.55;;
66702;SDS011;60933;46.398;-63.798;2023-05-07T00:17:58;7.50;;;1.65;;
66702;SDS011;60933;46.398;-63.798;2023-05-07T00:20:24;7.40;;;2.00;;
66702;SDS011;60933;46.398;-63.798;2023-05-07T00:22:50;6.05;;;1.35;;
66702;SDS011;60933;46.398;-63.798;2023-05-07T00:25:17;5.88;;;1.50;;
66702;SDS011;60933;46.398;-63.798;2023-05-07T00:27:44;5.75;;;1.77;;
66702;SDS011;60933;46.398;-63.798;2023-05-07T00:30:11;5.85;;;1.42;;
66702;SDS011;60933;46.398;-63.798;2023-05-07T00:32:38;7.60;;;2.00;;
66702;SDS011;60933;46.398;-63.798;2023-05-07T00:35:04;6.57;;;1.42;;
66702;SDS011;60933;46.398;-63.798;2023-05-07T00:37:31;3.42;;;1.55;;
66702;SDS011;60933;46.398;-63.798;2023-05-07T00:39:57;3.67;;;1.40;;
66702;SDS011;60933;46.398;-63.798;2023-05-07T00:42:24;5.93;;;1.80;;
66702;SDS011;60933;46.398;-63.798;2023-05-07T00:44:50;9.88;;;2.58;;
66702;SDS011;60933;46.398;-63.798;2023-05-07T00:47:16;9.48;;;2.20;;
66702;SDS011;60933;46.398;-63.798;2023-05-07T00:49:43;11.73;;;2.95;;
66702;SDS011;60933;46.398;-63.798;2023-05-07T00:52:13;10.30;;;2.17;;
66702;SDS011;60933;46.398;-63.798;2023-05-07T00:54:42;8.02;;;2.17;;
66702;SDS011;60933;46.398;-63.798;2023-05-07T00:57:11;5.65;;;1.52;;
66702;SDS011;60933;46.398;-63.798;2023-05-07T00:59:38;12.80;;;3.38;;
66702;SDS011;60933;46.398;-63.798;2023-05-07T01:02:06;7.18;;;1.98;;
66702;SDS011;60933;46.398;-63.798;2023-05-07T01:04:32;8.85;;;1.98;;
66702;SDS011;60933;46.398;-63.798;2023-05-07T01:06:59;7.47;;;2.08;;
66702;SDS011;60933;46.398;-63.798;2023-05-07T01:09:27;10.20;;;2.97;;
66702;SDS011;60933;46.398;-63.798;2023-05-07T01:11:54;10.35;;;3.55;;
66702;SDS011;60933;46.398;-63.798;2023-05-07T01:14:22;8.30;;;2.53;;
66702;SDS011;60933;46.398;-63.798;2023-05-07T01:16:49;10.13;;;2.92;;
66702;SDS011;60933;46.398;-63.798;2023-05-07T01:19:17;8.55;;;3.10;;
66702;SDS011;60933;46.398;-63.798;2023-05-07T01:21:45;11.75;;;3.42;;
66702;SDS011;60933;46.398;-63.798;2023-05-07T01:24:13;7.40;;;2.53;;
66702;SDS011;60933;46.398;-63.798;2023-05-07T01:26:41;4.85;;;1.40;;
66702;SDS011;60933;46.398;-63.798;2023-05-07T01:29:08;2.45;;;1.10;;
66702;SDS011;60933;46.398;-63.798;2023-05-07T01:31:35;6.38;;;1.83;;
66702;SDS011;60933;46.398;-63.798;2023-05-07T01:34:02;6.53;;;1.63;;
66702;SDS011;60933;46.398;-63.798;2023-05-07T01:36:30;8.63;;;2.65;;
66702;SDS011;60933;46.398;-63.798;2023-05-07T01:38:58;7.32;;;2.75;;
66702;SDS011;60933;46.398;-63.798;2023-05-07T01:41:25;4.13;;;2.33;;
66702;SDS011;60933;46.398;-63.798;2023-05-07T01:43:51;3.78;;;1.40;;
66702;SDS011;60933;46.398;-63.798;2023-05-07T01:46:19;7.50;;;2.10;;
66702;SDS011;60933;46.398;-63.798;2023-05-07T01:48:45;3.33;;;1.70;;
66702;SDS011;60933;46.398;-63.798;2023-05-07T01:51:12;3.97;;;1.27;;
66702;SDS011;60933;46.398;-63.798;2023-05-07T01:53:39;3.60;;;0.80;;
66702;SDS011;60933;46.398;-63.798;2023-05-07T01:56:06;2.35;;;1.27;;
66702;SDS011;60933;46.398;-63.798;2023-05-07T01:58:32;1.98;;;0.60;;
66702;SDS011;60933;46.398;-63.798;2023-05-07T02:00:58;3.97;;;0.73;;
66702;SDS011;60933;46.398;-63.798;2023-05-07T02:03:26;2.60;;;0.85;;
66702;SDS011;60933;46.398;-63.798;2023-05-07T02:05:52;4.88;;;0.60;;
66702;SDS011;60933;46.398;-63.798;2023-05-07T02:08:18;1.95;;;0.70;;
66702;SDS011;60933;46.398;-63.798;2023-05-07T02:10:44;1.92;;;0.50;;
66702;SDS011;60933;46.398;-63.798;2023-05-07T02:13:10;2.50;;;0.45;;
66702;SDS011;60933;46.398;-63.798;2023-05-07T02:15:36;1.80;;;0.68;;
66702;SDS011;60933;46.398;-63.798;2023-05-07T02:18:04;1.00;;;0.50;;
66702;SDS011;60933;46.398;-63.798;2023-05-07T02:20:36;2.28;;;0.52;;
66702;SDS011;60933;46.398;-63.798;2023-05-07T02:23:03;1.48;;;0.60;;
66702;SDS011;60933;46.398;-63.798;2023-05-07T02:25:29;1.25;;;0.50;;
66702;SDS011;60933;46.398;-63.798;2023-05-07T02:27:55;0.50;;;0.38;;
66702;SDS011;60933;46.398;-63.798;2023-05-07T02:30:21;2.85;;;0.60;;
66702;SDS011;60933;46.398;-63.798;2023-05-07T02:32:47;1.17;;;0.43;;
66702;SDS011;60933;46.398;-63.798;2023-05-07T02:35:13;1.38;;;0.30;;
66702;SDS011;60933;46.398;-63.798;2023-05-07T02:37:39;1.60;;;0.82;;
66702;SDS011;60933;46.398;-63.798;2023-05-07T02:40:06;1.30;;;0.52;;
66702;SDS011;60933;46.398;-63.798;2023-05-07T02:42:32;1.92;;;0.70;;
66702;SDS011;60933;46.398;-63.798;2023-05-07T02:44:58;2.08;;;0.73;;
66702;SDS011;60933;46.398;-63.798;2023-05-07T02:47:25;1.52;;;0.98;;
66702;SDS011;60933;46.398;-63.798;2023-05-07T02:49:54;0.80;;;0.63;;
66702;SDS011;60933;46.398;-63.798;2023-05-07T02:52:21;3.25;;;0.70;;
66702;SDS011;60933;46.398;-63.798;2023-05-07T02:54:47;1.73;;;0.75;;
66702;SDS011;60933;46.398;-63.798;2023-05-07T02:57:13;1.27;;;0.50;;
66702;SDS011;60933;46.398;-63.798;2023-05-07T02:59:40;1.58;;;0.70;;
66702;SDS011;60933;46.398;-63.798;2023-05-07T03:02:07;2.15;;;0.57;;
66702;SDS011;60933;46.398;-63.798;2023-05-07T03:04:33;1.52;;;0.43;;
66702;SDS011;60933;46.398;-63.798;2023-05-07T03:06:59;1.63;;;0.50;;
66702;SDS011;60933;46.398;-63.798;2023-05-07T03:09:25;1.20;;;0.30;;
66702;SDS011;60933;46.398;-63.798;2023-05-07T03:11:54;2.45;;;0.45;;
66702;SDS011;60933;46.398;-63.798;2023-05-07T03:14:20;1.70;;;0.82;;
66702;SDS011;60933;46.398;-63.798;2023-05-07T03:16:46;2.17;;;0.70;;
66702;SDS011;60933;46.398;-63.798;2023-05-07T03:19:12;0.80;;;0.60;;
66702;SDS011;60933;46.398;-63.798;2023-05-07T03:21:38;1.80;;;0.52;;
66702;SDS011;60933;46.398;-63.798;2023-05-07T03:24:05;3.85;;;0.55;;
66702;SDS011;60933;46.398;-63.798;2023-05-07T03:26:31;2.20;;;0.60;;
66702;SDS011;60933;46.398;-63.798;2023-05-07T03:28:57;0.90;;;0.30;;
66702;SDS011;60933;46.398;-63.798;2023-05-07T03:31:23;5.45;;;1.13;;
66702;SDS011;60933;46.398;-63.798;2023-05-07T03:33:51;2.42;;;0.45;;
66702;SDS011;60933;46.398;-63.798;2023-05-07T03:36:21;1.55;;;0.40;;
66702;SDS011;60933;46.398;-63.798;2023-05-07T03:38:48;1.25;;;0.47;;
66702;SDS011;60933;46.398;-63.798;2023-05-07T03:41:15;2.03;;;0.63;;
66702;SDS011;60933;46.398;-63.798;2023-05-07T03:43:41;1.65;;;0.43;;
66702;SDS011;60933;46.398;-63.798;2023-05-07T03:46:07;2.10;;;0.50;;
66702;SDS011;60933;46.398;-63.798;2023-05-07T03:48:34;0.95;;;0.22;;
66702;SDS011;60933;46.398;-63.798;2023-05-07T03:51:00;0.60;;;0.55;;
66702;SDS011;60933;46.398;-63.798;2023-05-07T03:53:26;1.33;;;0.52;;
66702;SDS011;60933;46.398;-63.798;2023-05-07T03:55:52;1.20;;;0.38;;
66702;SDS011;60933;46.398;-63.798;2023-05-07T03:58:18;3.72;;;0.45;;
66702;SDS011;60933;46.398;-63.798;2023-05-07T04:00:44;1.10;;;0.40;;
66702;SDS011;60933;46.398;-63.798;2023-05-07T04:03:11;1.95;;;0.60;;
66702;SDS011;60933;46.398;-63.798;2023-05-07T04:05:37;1.42;;;0.32;;
66702;SDS011;60933;46.398;-63.798;2023-05-07T04:08:03;1.52;;;0.40;;
66702;SDS011;60933;46.398;-63.798;2023-05-07T04:10:29;3.13;;;0.38;;
66702;SDS011;60933;46.398;-63.798;2023-05-07T04:12:55;2.58;;;0.60;;
66702;SDS011;60933;46.398;-63.798;2023-05-07T04:15:22;2.50;;;0.82;;
66702;SDS011;60933;46.398;-63.798;2023-05-07T04:17:49;2.10;;;0.60;;
66702;SDS011;60933;46.398;-63.798;2023-05-07T04:20:15;1.70;;;0.40;;
66702;SDS011;60933;46.398;-63.798;2023-05-07T04:22:42;1.95;;;0.75;;
66702;SDS011;60933;46.398;-63.798;2023-05-07T04:25:09;3.53;;;0.80;;
66702;SDS011;60933;46.398;-63.798;2023-05-07T04:27:35;0.80;;;0.40;;
66702;SDS011;60933;46.398;-63.798;2023-05-07T04:30:02;1.20;;;0.43;;
66702;SDS011;60933;46.398;-63.798;2023-05-07T04:32:29;0.80;;;0.30;;
66702;SDS011;60933;46.398;-63.798;2023-05-07T04:34:58;0.88;;;0.60;;
66702;SDS011;60933;46.398;-63.798;2023-05-07T04:37:25;0.80;;;0.70;;
66702;SDS011;60933;46.398;-63.798;2023-05-07T04:39:51;2.42;;;0.40;;
66702;SDS011;60933;46.398;-63.798;2023-05-07T04:42:17;0.70;;;0.43;;
66702;SDS011;60933;46.398;-63.798;2023-05-07T04:44:44;2.30;;;0.35;;
66702;SDS011;60933;46.398;-63.798;2023-05-07T04:47:11;1.95;;;0.40;;
66702;SDS011;60933;46.398;-63.798;2023-05-07T04:49:38;2.20;;;0.52;;
66702;SDS011;60933;46.398;-63.798;2023-05-07T04:52:04;3.13;;;1.52;;
66702;SDS011;60933;46.398;-63.798;2023-05-07T04:54:30;0.88;;;0.32;;
66702;SDS011;60933;46.398;-63.798;2023-05-07T04:56:56;1.70;;;0.32;;
66702;SDS011;60933;46.398;-63.798;2023-05-07T04:59:22;1.90;;;0.40;;
66702;SDS011;60933;46.398;-63.798;2023-05-07T05:01:48;2.72;;;0.60;;
66702;SDS011;60933;46.398;-63.798;2023-05-07T05:04:14;2.63;;;0.60;;
66702;SDS011;60933;46.398;-63.798;2023-05-07T05:06:40;2.00;;;0.57;;
66702;SDS011;60933;46.398;-63.798;2023-05-07T05:09:07;0.77;;;0.30;;
66702;SDS011;60933;46.398;-63.798;2023-05-07T05:11:33;2.40;;;0.60;;
66702;SDS011;60933;46.398;-63.798;2023-05-07T05:13:59;2.58;;;0.75;;
66702;SDS011;60933;46.398;-63.798;2023-05-07T05:16:25;2.15;;;0.60;;
66702;SDS011;60933;46.398;-63.798;2023-05-07T05:18:52;4.50;;;0.77;;
66702;SDS011;60933;46.398;-63.798;2023-05-07T05:21:19;2.75;;;0.47;;
66702;SDS011;60933;46.398;-63.798;2023-05-07T05:23:46;1.55;;;1.20;;
66702;SDS011;60933;46.398;-63.798;2023-05-07T05:26:12;1.60;;;0.60;;
66702;SDS011;60933;46.398;-63.798;2023-05-07T05:28:38;1.48;;;0.40;;
66702;SDS011;60933;46.398;-63.798;2023-05-07T05:31:05;2.17;;;0.73;;
66702;SDS011;60933;46.398;-63.798;2023-05-07T05:33:31;3.95;;;1.15;;
66702;SDS011;60933;46.398;-63.798;2023-05-07T05:35:57;1.85;;;1.60;;
66702;SDS011;60933;46.398;-63.798;2023-05-07T05:38:23;2.47;;;1.20;;
66702;SDS011;60933;46.398;-63.798;2023-05-07T05:40:49;4.85;;;2.75;;
66702;SDS011;60933;46.398;-63.798;2023-05-07T05:43:15;4.00;;;2.00;;
66702;SDS011;60933;46.398;-63.798;2023-05-07T05:45:41;1.77;;;0.63;;
66702;SDS011;60933;46.398;-63.798;2023-05-07T05:48:07;3.00;;;0.55;;
66702;SDS011;60933;46.398;-63.798;2023-05-07T05:50:34;1.10;;;0.90;;
66702;SDS011;60933;46.398;-63.798;2023-05-07T05:53:01;2.58;;;0.47;;
66702;SDS011;60933;46.398;-63.798;2023-05-07T05:55:28;5.10;;;0.52;;
66702;SDS011;60933;46.398;-63.798;2023-05-07T05:57:54;4.05;;;0.77;;
66702;SDS011;60933;46.398;-63.798;2023-05-07T06:00:22;4.25;;;0.55;;
66702;SDS011;60933;46.398;-63.798;2023-05-07T06:02:48;0.93;;;0.75;;
66702;SDS011;60933;46.398;-63.798;2023-05-07T06:05:14;1.50;;;0.70;;
66702;SDS011;60933;46.398;-63.798;2023-05-07T06:07:40;3.35;;;0.63;;
66702;SDS011;60933;46.398;-63.798;2023-05-07T06:10:07;1.35;;;0.98;;
66702;SDS011;60933;46.398;-63.798;2023-05-07T06:12:33;1.48;;;0.57;;
66702;SDS011;60933;46.398;-63.798;2023-05-07T06:14:59;1.67;;;0.93;;
66702;SDS011;60933;46.398;-63.798;2023-05-07T06:17:25;3.92;;;0.52;;
66702;SDS011;60933;46.398;-63.798;2023-05-07T06:19:52;1.95;;;0.45;;
66702;SDS011;60933;46.398;-63.798;2023-05-07T06:22:18;3.45;;;0.70;;
66702;SDS011;60933;46.398;-63.798;2023-05-07T06:24:44;2.03;;;0.77;;
66702;SDS011;60933;46.398;-63.798;2023-05-07T06:27:11;2.42;;;0.77;;
66702;SDS011;60933;46.398;-63.798;2023-05-07T06:29:37;0.73;;;0.50;;
66702;SDS011;60933;46.398;-63.798;2023-05-07T06:32:10;1.08;;;0.50;;
66702;SDS011;60933;46.398;-63.798;2023-05-07T06:34:38;2.55;;;0.90;;
66702;SDS011;60933;46.398;-63.798;2023-05-07T06:37:05;2.72;;;0.88;;
66702;SDS011;60933;46.398;-63.798;2023-05-07T06:39:31;1.85;;;0.68;;
66702;SDS011;60933;46.398;-63.798;2023-05-07T06:41:58;4.10;;;1.00;;
66702;SDS011;60933;46.398;-63.798;2023-05-07T06:44:25;1.67;;;0.77;;
66702;SDS011;60933;46.398;-63.798;2023-05-07T06:46:51;1.88;;;0.30;;
66702;SDS011;60933;46.398;-63.798;2023-05-07T06:49:17;1.05;;;0.93;;
66702;SDS011;60933;46.398;-63.798;2023-05-07T06:51:43;0.70;;;0.38;;
66702;SDS011;60933;46.398;-63.798;2023-05-07T06:54:10;3.33;;;0.50;;
66702;SDS011;60933;46.398;-63.798;2023-05-07T06:56:36;0.88;;;0.57;;
66702;SDS011;60933;46.398;-63.798;2023-05-07T06:59:02;2.30;;;0.82;;
66702;SDS011;60933;46.398;-63.798;2023-05-07T07:01:29;1.13;;;0.45;;
66702;SDS011;60933;46.398;-63.798;2023-05-07T07:03:55;1.58;;;0.50;;
66702;SDS011;60933;46.398;-63.798;2023-05-07T07:06:21;1.33;;;0.32;;
66702;SDS011;60933;46.398;-63.798;2023-05-07T07:08:47;2.08;;;0.40;;
66702;SDS011;60933;46.398;-63.798;2023-05-07T07:11:13;1.98;;;0.85;;
66702;SDS011;60933;46.398;-63.798;2023-05-07T07:13:39;0.90;;;0.63;;
66702;SDS011;60933;46.398;-63.798;2023-05-07T07:16:05;0.60;;;0.43;;
66702;SDS011;60933;46.398;-63.798;2023-05-07T07:18:31;0.85;;;0.38;;
66702;SDS011;60933;46.398;-63.798;2023-05-07T07:20:57;1.60;;;0.40;;
66702;SDS011;60933;46.398;-63.798;2023-05-07T07:23:24;0.70;;;0.45;;
66702;SDS011;60933;46.398;-63.798;2023-05-07T07:25:50;2.95;;;0.70;;
66702;SDS011;60933;46.398;-63.798;2023-05-07T07:28:17;2.67;;;0.60;;
66702;SDS011;60933;46.398;-63.798;2023-05-07T07:30:43;1.10;;;0.38;;
66702;SDS011;60933;46.398;-63.798;2023-05-07T07:33:09;0.88;;;0.20;;
66702;SDS011;60933;46.398;-63.798;2023-05-07T07:35:35;1.10;;;0.50;;
66702;SDS011;60933;46.398;-63.798;2023-05-07T07:38:01;1.00;;;0.52;;
66702;SDS011;60933;46.398;-63.798;2023-05-07T07:40:27;3.30;;;0.50;;
66702;SDS011;60933;46.398;-63.798;2023-05-07T07:42:54;1.63;;;0.40;;
66702;SDS011;60933;46.398;-63.798;2023-05-07T07:45:20;1.38;;;0.55;;
66702;SDS011;60933;46.398;-63.798;2023-05-07T07:47:46;1.42;;;0.70;;
66702;SDS011;60933;46.398;-63.798;2023-05-07T07:50:12;0.90;;;0.50;;
66702;SDS011;60933;46.398;-63.798;2023-05-07T07:52:38;3.42;;;0.73;;
66702;SDS011;60933;46.398;-63.798;2023-05-07T07:55:05;2.65;;;0.50;;
66702;SDS011;60933;46.398;-63.798;2023-05-07T07:57:32;1.63;;;1.25;;
66702;SDS011;60933;46.398;-63.798;2023-05-07T07:59:58;2.63;;;0.65;;
66702;SDS011;60933;46.398;-63.798;2023-05-07T08:02:24;1.70;;;0.63;;
66702;SDS011;60933;46.398;-63.798;2023-05-07T08:04:51;1.65;;;0.40;;
66702;SDS011;60933;46.398;-63.798;2023-05-07T08:07:17;3.17;;;0.40;;
66702;SDS011;60933;46.398;-63.798;2023-05-07T08:09:45;1.27;;;0.20;;
66702;SDS011;60933;46.398;-63.798;2023-05-07T08:12:12;1.75;;;0.50;;
66702;SDS011;60933;46.398;-63.798;2023-05-07T08:14:38;1.75;;;0.40;;
66702;SDS011;60933;46.398;-63.798;2023-05-07T08:17:04;1.20;;;0.40;;
66702;SDS011;60933;46.398;-63.798;2023-05-07T08:19:30;1.27;;;0.77;;
66702;SDS011;60933;46.398;-63.798;2023-05-07T08:21:56;1.85;;;0.40;;
66702;SDS011;60933;46.398;-63.798;2023-05-07T08:24:22;2.35;;;0.40;;
66702;SDS011;60933;46.398;-63.798;2023-05-07T08:26:49;1.40;;;0.50;;
66702;SDS011;60933;46.398;-63.798;2023-05-07T08:29:15;3.22;;;0.68;;
66702;SDS011;60933;46.398;-63.798;2023-05-07T08:31:41;2.75;;;0.63;;
66702;SDS011;60933;46.398;-63.798;2023-05-07T08:34:07;1.90;;;0.50;;
66702;SDS011;60933;46.398;-63.798;2023-05-07T08:36:33;1.38;;;0.50;;
66702;SDS011;60933;46.398;-63.798;2023-05-07T08:38:59;0.90;;;0.38;;
66702;SDS011;60933;46.398;-63.798;2023-05-07T08:41:26;0.93;;;0.30;;
66702;SDS011;60933;46.398;-63.798;2023-05-07T08:43:52;2.47;;;0.55;;
66702;SDS011;60933;46.398;-63.798;2023-05-07T08:46:22;1.65;;;0.47;;
66702;SDS011;60933;46.398;-63.798;2023-05-07T08:48:51;3.05;;;0.88;;
66702;SDS011;60933;46.398;-63.798;2023-05-07T08:51:18;3.42;;;0.45;;
66702;SDS011;60933;46.398;-63.798;2023-05-07T08:53:46;2.88;;;1.00;;
66702;SDS011;60933;46.398;-63.798;2023-05-07T08:56:14;1.23;;;0.43;;
66702;SDS011;60933;46.398;-63.798;2023-05-07T08:58:41;0.82;;;0.38;;
66702;SDS011;60933;46.398;-63.798;2023-05-07T09:01:14;1.00;;;0.52;;
66702;SDS011;60933;46.398;-63.798;2023-05-07T09:03:41;1.58;;;0.40;;
66702;SDS011;60933;46.398;-63.798;2023-05-07T09:06:10;0.90;;;0.30;;
66702;SDS011;60933;46.398;-63.798;2023-05-07T09:08:36;3.17;;;0.38;;
66702;SDS011;60933;46.398;-63.798;2023-05-07T09:11:03;1.45;;;0.40;;
66702;SDS011;60933;46.398;-63.798;2023-05-07T09:13:29;1.65;;;0.28;;
66702;SDS011;60933;46.398;-63.798;2023-05-07T09:15:55;0.60;;;0.30;;
66702;SDS011;60933;46.398;-63.798;2023-05-07T09:18:25;2.28;;;1.98;;
66702;SDS011;60933;46.398;-63.798;2023-05-07T09:20:51;3.10;;;0.45;;
66702;SDS011;60933;46.398;-63.798;2023-05-07T09:23:17;2.55;;;0.50;;
66702;SDS011;60933;46.398;-63.798;2023-05-07T09:25:43;2.80;;;0.40;;
66702;SDS011;60933;46.398;-63.798;2023-05-07T09:28:09;2.13;;;0.40;;
66702;SDS011;60933;46.398;-63.798;2023-05-07T09:30:36;1.10;;;0.35;;
66702;SDS011;60933;46.398;-63.798;2023-05-07T09:33:03;0.82;;;0.52;;
66702;SDS011;60933;46.398;-63.798;2023-05-07T09:35:30;3.08;;;0.40;;
66702;SDS011;60933;46.398;-63.798;2023-05-07T09:37:57;2.80;;;0.50;;
66702;SDS011;60933;46.398;-63.798;2023-05-07T09:40:28;2.35;;;0.47;;
66702;SDS011;60933;46.398;-63.798;2023-05-07T09:42:56;2.10;;;0.40;;
66702;SDS011;60933;46.398;-63.798;2023-05-07T09:45:33;2.08;;;0.75;;
66702;SDS011;60933;46.398;-63.798;2023-05-07T09:48:00;4.75;;;0.82;;
66702;SDS011;60933;46.398;-63.798;2023-05-07T09:50:35;1.15;;;0.25;;
66702;SDS011;60933;46.398;-63.798;2023-05-07T09:53:03;2.17;;;0.50;;
66702;SDS011;60933;46.398;-63.798;2023-05-07T09:55:30;3.97;;;0.50;;
66702;SDS011;60933;46.398;-63.798;2023-05-07T09:57:56;1.95;;;0.35;;
66702;SDS011;60933;46.398;-63.798;2023-05-07T10:00:24;0.77;;;0.40;;
66702;SDS011;60933;46.398;-63.798;2023-05-07T10:02:52;1.50;;;0.30;;
66702;SDS011;60933;46.398;-63.798;2023-05-07T10:05:21;0.80;;;0.22;;
66702;SDS011;60933;46.398;-63.798;2023-05-07T10:07:48;2.95;;;0.65;;
66702;SDS011;60933;46.398;-63.798;2023-05-07T10:10:15;1.52;;;0.50;;
66702;SDS011;60933;46.398;-63.798;2023-05-07T10:12:42;1.25;;;0.40;;
66702;SDS011;60933;46.398;-63.798;2023-05-07T10:15:09;0.95;;;0.45;;
66702;SDS011;60933;46.398;-63.798;2023-05-07T10:17:39;2.17;;;0.35;;
66702;SDS011;60933;46.398;-63.798;2023-05-07T10:20:06;0.93;;;0.52;;
66702;SDS011;60933;46.398;-63.798;2023-05-07T10:22:43;2.38;;;0.50;;
66702;SDS011;60933;46.398;-63.798;2023-05-07T10:25:29;2.10;;;0.50;;
66702;SDS011;60933;46.398;-63.798;2023-05-07T10:28:00;3.22;;;0.70;;
66702;SDS011;60933;46.398;-63.798;2023-05-07T10:30:39;2.80;;;0.38;;
66702;SDS011;60933;46.398;-63.798;2023-05-07T10:33:27;2.58;;;0.70;;
66702;SDS011;60933;46.398;-63.798;2023-05-07T10:35:59;0.75;;;0.30;;
66702;SDS011;60933;46.398;-63.798;2023-05-07T10:38:28;1.25;;;0.50;;
66702;SDS011;60933;46.398;-63.798;2023-05-07T10:40:54;1.63;;;0.50;;
66702;SDS011;60933;46.398;-63.798;2023-05-07T10:43:21;3.33;;;0.98;;
66702;SDS011;60933;46.398;-63.798;2023-05-07T10:51:31;1.83;;;0.55;;
66702;SDS011;60933;46.398;-63.798;2023-05-07T11:02:07;1.23;;;0.40;;
66702;SDS011;60933;46.398;-63.798;2023-05-07T11:04:36;1.52;;;0.30;;
66702;SDS011;60933;46.398;-63.798;2023-05-07T11:15:08;0.30;;;0.30;;
66702;SDS011;60933;46.398;-63.798;2023-05-07T11:17:51;3.17;;;0.40;;
66702;SDS011;60933;46.398;-63.798;2023-05-07T11:28:36;1.90;;;0.47;;
66702;SDS011;60933;46.398;-63.798;2023-05-07T11:31:06;1.90;;;0.40;;
66702;SDS011;60933;46.398;-63.798;2023-05-07T11:33:33;1.02;;;0.50;;
66702;SDS011;60933;46.398;-63.798;2023-05-07T11:36:00;1.80;;;0.35;;
66702;SDS011;60933;46.398;-63.798;2023-05-07T11:38:29;0.82;;;0.30;;
66702;SDS011;60933;46.398;-63.798;2023-05-07T11:40:57;1.05;;;0.50;;
66702;SDS011;60933;46.398;-63.798;2023-05-07T11:43:26;1.40;;;0.50;;
66702;SDS011;60933;46.398;-63.798;2023-05-07T11:45:52;3.47;;;0.50;;
66702;SDS011;60933;46.398;-63.798;2023-05-07T11:48:18;0.85;;;0.82;;
66702;SDS011;60933;46.398;-63.798;2023-05-07T11:50:53;2.78;;;0.40;;
66702;SDS011;60933;46.398;-63.798;2023-05-07T11:53:26;1.42;;;0.30;;
66702;SDS011;60933;46.398;-63.798;2023-05-07T11:55:53;1.17;;;0.55;;
66702;SDS011;60933;46.398;-63.798;2023-05-07T11:58:22;1.65;;;0.40;;
66702;SDS011;60933;46.398;-63.798;2023-05-07T12:00:52;3.42;;;0.40;;
66702;SDS011;60933;46.398;-63.798;2023-05-07T12:03:19;0.65;;;0.43;;
66702;SDS011;60933;46.398;-63.798;2023-05-07T12:05:46;2.53;;;0.55;;
66702;SDS011;60933;46.398;-63.798;2023-05-07T12:08:16;1.13;;;0.40;;
66702;SDS011;60933;46.398;-63.798;2023-05-07T12:10:44;1.17;;;0.30;;
66702;SDS011;60933;46.398;-63.798;2023-05-07T12:15:43;1.27;;;0.30;;
66702;SDS011;60933;46.398;-63.798;2023-05-07T12:18:10;1.88;;;0.40;;
66702;SDS011;60933;46.398;-63.798;2023-05-07T12:20:37;0.90;;;0.40;;
66702;SDS011;60933;46.398;-63.798;2023-05-07T12:23:04;1.92;;;0.40;;
66702;SDS011;60933;46.398;-63.798;2023-05-07T12:25:31;2.45;;;0.32;;
66702;SDS011;60933;46.398;-63.798;2023-05-07T12:28:02;2.10;;;0.52;;
66702;SDS011;60933;46.398;-63.798;2023-05-07T12:30:38;2.05;;;0.63;;
66702;SDS011;60933;46.398;-63.798;2023-05-07T12:33:05;2.63;;;0.50;;
66702;SDS011;60933;46.398;-63.798;2023-05-07T12:35:32;2.30;;;0.47;;
66702;SDS011;60933;46.398;-63.798;2023-05-07T12:38:07;1.42;;;0.43;;
66702;SDS011;60933;46.398;-63.798;2023-05-07T12:40:36;0.70;;;0.40;;
66702;SDS011;60933;46.398;-63.798;2023-05-07T12:43:02;2.08;;;0.50;;
66702;SDS011;60933;46.398;-63.798;2023-05-07T12:45:29;2.05;;;0.50;;
66702;SDS011;60933;46.398;-63.798;2023-05-07T12:47:55;1.27;;;0.50;;
66702;SDS011;60933;46.398;-63.798;2023-05-07T12:50:22;1.15;;;0.43;;
66702;SDS011;60933;46.398;-63.798;2023-05-07T12:52:48;3.38;;;0.60;;
66702;SDS011;60933;46.398;-63.798;2023-05-07T12:55:15;3.92;;;0.82;;
66702;SDS011;60933;46.398;-63.798;2023-05-07T12:57:43;1.23;;;0.70;;
66702;SDS011;60933;46.398;-63.798;2023-05-07T13:00:35;3.28;;;0.57;;
66702;SDS011;60933;46.398;-63.798;2023-05-07T13:03:02;4.57;;;0.70;;
66702;SDS011;60933;46.398;-63.798;2023-05-07T13:05:28;1.48;;;0.57;;
66702;SDS011;60933;46.398;-63.798;2023-05-07T13:07:57;1.73;;;0.73;;
66702;SDS011;60933;46.398;-63.798;2023-05-07T13:10:23;3.42;;;0.50;;
66702;SDS011;60933;46.398;-63.798;2023-05-07T13:12:51;2.92;;;0.60;;
66702;SDS011;60933;46.398;-63.798;2023-05-07T13:15:17;3.22;;;0.52;;
66702;SDS011;60933;46.398;-63.798;2023-05-07T13:17:44;1.65;;;0.50;;
66702;SDS011;60933;46.398;-63.798;2023-05-07T13:20:10;1.92;;;0.57;;
66702;SDS011;60933;46.398;-63.798;2023-05-07T13:22:38;3.20;;;0.90;;
66702;SDS011;60933;46.398;-63.798;2023-05-07T13:25:05;3.90;;;0.93;;
66702;SDS011;60933;46.398;-63.798;2023-05-07T13:27:31;2.85;;;0.63;;
66702;SDS011;60933;46.398;-63.798;2023-05-07T13:30:00;3.47;;;1.33;;
66702;SDS011;60933;46.398;-63.798;2023-05-07T13:32:27;1.50;;;0.57;;
66702;SDS011;60933;46.398;-63.798;2023-05-07T13:34:53;1.38;;;0.60;;
66702;SDS011;60933;46.398;-63.798;2023-05-07T13:37:19;2.10;;;0.88;;
66702;SDS011;60933;46.398;-63.798;2023-05-07T13:39:45;1.77;;;1.02;;
66702;SDS011;60933;46.398;-63.798;2023-05-07T13:42:11;3.63;;;1.58;;
66702;SDS011;60933;46.398;-63.798;2023-05-07T13:44:37;2.20;;;1.23;;
66702;SDS011;60933;46.398;-63.798;2023-05-07T13:47:03;4.18;;;1.38;;
66702;SDS011;60933;46.398;-63.798;2023-05-07T13:49:29;1.40;;;0.80;;
66702;SDS011;60933;46.398;-63.798;2023-05-07T13:51:55;3.60;;;0.73;;
66702;SDS011;60933;46.398;-63.798;2023-05-07T13:54:22;4.10;;;0.70;;
66702;SDS011;60933;46.398;-63.798;2023-05-07T13:56:48;1.70;;;1.33;;
66702;SDS011;60933;46.398;-63.798;2023-05-07T13:59:14;0.93;;;0.55;;
66702;SDS011;60933;46.398;-63.798;2023-05-07T14:01:40;2.67;;;0.80;;
66702;SDS011;60933;46.398;-63.798;2023-05-07T14:04:06;13.50;;;5.60;;
66702;SDS011;60933;46.398;-63.798;2023-05-07T14:06:33;11.02;;;4.93;;
66702;SDS011;60933;46.398;-63.798;2023-05-07T14:08:59;6.88;;;1.25;;
66702;SDS011;60933;46.398;-63.798;2023-05-07T14:11:25;5.90;;;1.05;;
66702;SDS011;60933;46.398;-63.798;2023-05-07T14:13:51;4.68;;;1.45;;
66702;SDS011;60933;46.398;-63.798;2023-05-07T14:16:17;3.08;;;1.33;;
66702;SDS011;60933;46.398;-63.798;2023-05-07T14:18:43;4.53;;;0.93;;
66702;SDS011;60933;46.398;-63.798;2023-05-07T14:21:09;4.80;;;1.10;;
66702;SDS011;60933;46.398;-63.798;2023-05-07T14:23:35;3.35;;;1.30;;
66702;SDS011;60933;46.398;-63.798;2023-05-07T14:26:01;2.08;;;0.93;;
66702;SDS011;60933;46.398;-63.798;2023-05-07T14:28:28;2.28;;;0.90;;
66702;SDS011;60933;46.398;-63.798;2023-05-07T14:30:54;3.78;;;1.10;;
66702;SDS011;60933;46.398;-63.798;2023-05-07T14:33:20;2.88;;;1.20;;
66702;SDS011;60933;46.398;-63.798;2023-05-07T14:35:46;4.00;;;0.63;;
66702;SDS011;60933;46.398;-63.798;2023-05-07T14:38:14;4.03;;;0.80;;
66702;SDS011;60933;46.398;-63.798;2023-05-07T14:40:40;4.47;;;0.90;;
66702;SDS011;60933;46.398;-63.798;2023-05-07T14:43:07;4.72;;;0.90;;
66702;SDS011;60933;46.398;-63.798;2023-05-07T14:45:33;3.50;;;0.80;;
66702;SDS011;60933;46.398;-63.798;2023-05-07T14:47:59;3.60;;;0.82;;
66702;SDS011;60933;46.398;-63.798;2023-05-07T14:50:25;2.85;;;0.80;;
66702;SDS011;60933;46.398;-63.798;2023-05-07T14:52:51;3.53;;;0.80;;